createdAt,value
2023-12-30T00:04:55.417Z,26.41
2023-12-30T00:09:58.298Z,26.47
2023-12-30T00:15:02.510Z,26.47
2023-12-30T00:20:06.744Z,26.49
2023-12-30T00:25:11.329Z,26.49
2023-12-30T00:30:16.163Z,26.48
2023-12-30T00:35:19.645Z,26.53
2023-12-30T00:40:26.817Z,26.54
2023-12-30T00:45:31.665Z,26.52
2023-12-30T00:50:34.618Z,26.51
2023-12-30T00:55:37.535Z,26.61
2023-12-30T01:00:41.779Z,26.61
2023-12-30T01:05:45.306Z,26.62
2023-12-30T01:10:48.386Z,26.58
2023-12-30T01:15:52.590Z,26.59
2023-12-30T01:20:55.427Z,26.57
2023-12-30T01:25:58.451Z,26.60
2023-12-30T01:31:02.666Z,26.60
2023-12-30T01:36:06.530Z,26.60
2023-12-30T01:41:09.404Z,26.51
2023-12-30T01:46:14.733Z,26.49
2023-12-30T01:51:24.868Z,26.37
2023-12-30T01:56:29.795Z,26.33
2023-12-30T02:01:34.234Z,26.29
2023-12-30T02:06:37.193Z,26.28
2023-12-30T02:11:40.299Z,26.24
2023-12-30T02:16:44.622Z,26.23
2023-12-30T02:21:47.753Z,26.14
2023-12-30T02:26:52.062Z,26.10
2023-12-30T02:31:55.011Z,26.02
2023-12-30T02:36:57.954Z,25.97
2023-12-30T02:42:03.636Z,25.90
2023-12-30T02:47:07.007Z,25.84
2023-12-30T02:52:09.885Z,25.76
2023-12-30T02:57:14.039Z,25.69
2023-12-30T03:02:16.842Z,25.61
2023-12-30T03:07:19.747Z,25.54
2023-12-30T03:12:24.293Z,25.47
2023-12-30T03:17:27.144Z,25.36
2023-12-30T03:22:30.869Z,25.31
2023-12-30T03:27:35.830Z,25.20
2023-12-30T03:32:38.663Z,25.12
2023-12-30T03:37:41.648Z,25.09
2023-12-30T03:42:46.266Z,25.05
2023-12-30T03:47:49.675Z,25.01
2023-12-30T03:52:52.573Z,24.93
2023-12-30T03:57:57.094Z,24.84
2023-12-30T04:03:00.315Z,24.80
2023-12-30T04:08:04.093Z,24.78
2023-12-30T04:13:08.363Z,24.72
2023-12-30T04:18:11.576Z,24.67
2023-12-30T04:23:14.457Z,24.63
2023-12-30T04:28:18.691Z,24.56
2023-12-30T04:33:21.904Z,24.51
2023-12-30T04:38:25.003Z,24.46
2023-12-30T04:43:29.235Z,24.42
2023-12-30T04:48:32.260Z,24.36
2023-12-30T04:53:35.082Z,24.33
2023-12-30T04:58:39.269Z,24.28
2023-12-30T05:03:43.657Z,24.27
2023-12-30T05:08:46.479Z,24.24
2023-12-30T05:13:50.640Z,24.21
2023-12-30T05:18:54.036Z,24.19
2023-12-30T05:23:57.030Z,24.17
2023-12-30T05:29:01.171Z,24.12
2023-12-30T05:34:04.189Z,24.10
2023-12-30T05:39:07.237Z,24.07
2023-12-30T05:44:11.451Z,24.04
2023-12-30T05:49:14.420Z,24.01
2023-12-30T05:54:17.302Z,23.97
2023-12-30T05:59:21.642Z,23.94
2023-12-30T06:04:24.460Z,23.90
2023-12-30T06:09:27.518Z,23.88
2023-12-30T06:14:31.676Z,23.88
2023-12-30T06:19:35.493Z,23.84
2023-12-30T06:24:38.742Z,23.79
2023-12-30T06:29:42.869Z,23.78
2023-12-30T06:34:45.729Z,23.75
2023-12-30T06:39:48.873Z,23.74
2023-12-30T06:44:53.055Z,23.72
2023-12-30T06:49:56.468Z,23.69
2023-12-30T06:55:06.930Z,23.67
2023-12-30T07:00:20.354Z,23.64
2023-12-30T07:05:23.195Z,23.66
2023-12-30T07:10:26.180Z,23.63
2023-12-30T07:15:30.342Z,23.63
2023-12-30T07:20:33.685Z,23.61
2023-12-30T07:25:36.970Z,23.56
2023-12-30T07:30:41.423Z,23.56
2023-12-30T07:35:44.921Z,23.54
2023-12-30T07:40:47.850Z,23.51
2023-12-30T07:45:52.339Z,23.51
2023-12-30T07:50:55.272Z,23.50
2023-12-30T07:55:58.541Z,23.52
2023-12-30T08:01:02.964Z,23.55
2023-12-30T08:06:06.339Z,23.42
2023-12-30T08:11:09.258Z,22.07
2023-12-30T08:16:13.445Z,21.41
2023-12-30T08:21:16.392Z,22.23
2023-12-30T08:26:19.145Z,22.62
2023-12-30T08:31:23.772Z,22.86
2023-12-30T08:36:29.421Z,22.99
2023-12-30T08:41:33.218Z,23.08
2023-12-30T08:46:37.472Z,23.15
2023-12-30T08:51:40.608Z,23.20
2023-12-30T08:56:43.392Z,23.25
2023-12-30T09:01:47.778Z,23.30
2023-12-30T09:06:50.660Z,23.33
2023-12-30T09:11:53.550Z,23.37
2023-12-30T09:16:58.015Z,23.39
2023-12-30T09:22:00.915Z,23.42
2023-12-30T09:27:03.796Z,23.45
2023-12-30T09:32:08.696Z,23.47
2023-12-30T09:37:12.240Z,23.49
2023-12-30T09:42:15.355Z,23.52
2023-12-30T09:47:19.986Z,23.56
2023-12-30T09:52:22.893Z,23.60
2023-12-30T09:57:25.789Z,23.60
2023-12-30T10:02:31.371Z,23.65
2023-12-30T10:07:35.280Z,23.68
2023-12-30T10:12:38.214Z,23.70
2023-12-30T10:17:43.058Z,23.73
2023-12-30T10:22:45.956Z,23.74
2023-12-30T10:27:49.382Z,23.77
2023-12-30T10:32:53.791Z,24.00
2023-12-30T10:37:57.008Z,23.97
2023-12-30T10:43:00.035Z,23.90
2023-12-30T10:48:08.324Z,23.88
2023-12-30T10:53:18.459Z,23.88
2023-12-30T10:58:23.669Z,23.89
2023-12-30T11:03:29.047Z,23.89
2023-12-30T11:08:32.379Z,23.90
2023-12-30T11:13:39.808Z,23.91
2023-12-30T11:18:55.371Z,23.92
2023-12-30T11:24:01.776Z,23.94
2023-12-30T11:29:07.156Z,23.94
2023-12-30T11:34:12.544Z,23.96
2023-12-30T11:39:24.437Z,24.00
2023-12-30T11:44:27.423Z,24.03
2023-12-30T11:49:31.687Z,24.06
2023-12-30T11:54:36.729Z,24.07
2023-12-30T11:59:39.686Z,24.13
2023-12-30T12:04:44.689Z,24.18
2023-12-30T12:09:47.895Z,22.40
2023-12-30T12:14:53.891Z,20.63
2023-12-30T12:19:58.867Z,21.32
2023-12-30T12:25:03.449Z,22.35
2023-12-30T12:30:09.965Z,22.75
2023-12-30T12:35:15.879Z,22.98
2023-12-30T12:40:18.901Z,23.16
2023-12-30T12:45:21.770Z,23.27
2023-12-30T12:50:26.009Z,23.35
2023-12-30T12:55:28.897Z,23.37
2023-12-30T13:00:33.049Z,23.43
2023-12-30T13:05:37.954Z,23.45
2023-12-30T13:10:48.618Z,23.46
2023-12-30T13:15:52.130Z,23.49
2023-12-30T13:20:57.585Z,23.50
2023-12-30T13:26:04.440Z,23.54
2023-12-30T13:31:11.254Z,23.57
2023-12-30T13:36:16.567Z,23.63
2023-12-30T13:41:23.265Z,23.67
2023-12-30T13:46:40.608Z,23.70
2023-12-30T13:51:45.656Z,23.72
2023-12-30T13:56:53.991Z,23.74
2023-12-30T14:01:58.535Z,23.75
2023-12-30T14:07:07.467Z,23.75
2023-12-30T14:12:12.426Z,23.78
2023-12-30T14:17:16.719Z,24.09
2023-12-30T14:22:21.581Z,24.34
2023-12-30T14:27:24.536Z,24.48
2023-12-30T14:32:27.416Z,24.55
2023-12-30T14:37:31.698Z,24.60
2023-12-30T14:42:34.736Z,24.63
2023-12-30T14:47:37.755Z,24.64
2023-12-30T14:52:42.303Z,24.53
2023-12-30T14:57:46.827Z,24.29
2023-12-30T15:02:51.490Z,24.15
2023-12-30T15:07:57.736Z,24.09
2023-12-30T15:13:03.037Z,24.03
2023-12-30T15:18:07.715Z,24.04
2023-12-30T15:23:12.765Z,24.02
2023-12-30T15:28:15.680Z,24.01
2023-12-30T15:33:19.036Z,23.99
2023-12-30T15:38:23.308Z,23.99
2023-12-30T15:43:26.814Z,24.00
2023-12-30T15:48:29.845Z,24.00
2023-12-30T15:53:34.482Z,23.98
2023-12-30T15:58:37.890Z,24.01
2023-12-30T16:03:40.867Z,24.00
2023-12-30T16:08:45.516Z,24.01
2023-12-30T16:13:48.369Z,24.01
2023-12-30T16:18:51.374Z,24.01
2023-12-30T16:23:55.658Z,24.01
2023-12-30T16:29:00.189Z,24.02
2023-12-30T16:34:03.952Z,24.05
2023-12-30T16:39:08.441Z,24.04
2023-12-30T16:44:11.388Z,24.06
2023-12-30T16:49:14.280Z,24.05
2023-12-30T16:54:18.520Z,24.05
2023-12-30T16:59:21.734Z,24.03
2023-12-30T17:04:25.493Z,24.03
2023-12-30T17:09:29.776Z,24.01
2023-12-30T17:14:33.026Z,24.00
2023-12-30T17:19:36.144Z,24.01
2023-12-30T17:24:41.389Z,24.02
2023-12-30T17:29:44.246Z,24.00
2023-12-30T17:34:47.241Z,23.97
2023-12-30T17:39:51.614Z,23.94
2023-12-30T17:44:54.401Z,23.99
2023-12-30T17:49:57.241Z,24.00
2023-12-30T17:55:02.591Z,24.06
2023-12-30T18:00:07.826Z,24.13
2023-12-30T18:05:11.059Z,24.18
2023-12-30T18:10:15.890Z,24.23
2023-12-30T18:15:18.924Z,24.31
2023-12-30T18:20:22.594Z,24.36
2023-12-30T18:25:26.822Z,24.39
2023-12-30T18:30:29.988Z,24.45
2023-12-30T18:35:32.855Z,24.51
2023-12-30T18:40:38.049Z,24.56
2023-12-30T18:45:41.613Z,24.60
2023-12-30T18:50:44.546Z,24.64
2023-12-30T18:55:49.091Z,24.69
2023-12-30T19:00:52.599Z,24.75
2023-12-30T19:05:56.008Z,24.80
2023-12-30T19:11:00.436Z,24.86
2023-12-30T19:16:03.549Z,24.91
2023-12-30T19:21:06.581Z,24.96
2023-12-30T19:26:10.844Z,25.04
2023-12-30T19:31:14.528Z,25.10
2023-12-30T19:36:17.677Z,25.12
2023-12-30T19:41:22.648Z,25.15
2023-12-30T19:46:27.493Z,25.21
2023-12-30T19:51:30.398Z,25.26
2023-12-30T19:56:36.994Z,25.27
2023-12-30T20:01:39.890Z,25.33
2023-12-30T20:06:46.746Z,25.36
2023-12-30T20:11:51.442Z,25.38
2023-12-30T20:16:56.036Z,25.42
2023-12-30T20:21:59.043Z,25.48
2023-12-30T20:27:04.305Z,25.54
2023-12-30T20:32:08.156Z,25.59
2023-12-30T20:37:11.196Z,25.59
2023-12-30T20:42:18.681Z,25.64
2023-12-30T20:47:22.176Z,25.65
2023-12-30T20:52:25.101Z,25.69
2023-12-30T20:57:29.449Z,25.74
2023-12-30T21:02:32.560Z,25.73
2023-12-30T21:07:36.376Z,25.71
2023-12-30T21:12:40.648Z,25.77
2023-12-30T21:17:43.606Z,25.82
2023-12-30T21:22:46.512Z,25.84
2023-12-30T21:27:51.033Z,25.88
2023-12-30T21:32:55.305Z,25.91
2023-12-30T21:37:58.282Z,25.93
2023-12-30T21:43:02.829Z,25.96
2023-12-30T21:48:07.937Z,25.97
2023-12-30T21:53:10.995Z,25.96
2023-12-30T21:58:15.191Z,25.93
2023-12-30T22:03:18.083Z,25.93
2023-12-30T22:08:21.252Z,25.91
2023-12-30T22:13:25.447Z,25.88
2023-12-30T22:18:28.331Z,25.88
2023-12-30T22:23:31.711Z,25.88
2023-12-30T22:28:37.792Z,25.87
2023-12-30T22:33:40.767Z,25.87
2023-12-30T22:38:43.607Z,25.85
2023-12-30T22:43:47.923Z,25.84
2023-12-30T22:48:50.880Z,25.84
2023-12-30T22:53:53.779Z,25.84
2023-12-30T22:58:57.986Z,25.85
2023-12-30T23:04:00.941Z,25.98
2023-12-30T23:09:04.098Z,26.21
2023-12-30T23:14:08.277Z,26.26
2023-12-30T23:19:11.212Z,26.25
2023-12-30T23:24:14.328Z,26.09
2023-12-30T23:29:18.565Z,25.94
2023-12-30T23:34:21.461Z,25.94
2023-12-30T23:39:24.654Z,25.91
2023-12-30T23:44:28.840Z,25.90
2023-12-30T23:49:31.700Z,25.88
2023-12-30T23:54:34.574Z,25.87
2023-12-30T23:59:40.998Z,25.86
